Time;durP1;ratioP1;P1;durP2;ratioP2;P2;SDS_P1;SDS_P2;PMS_P1;PMS_P2;Temp;Humidity;BMP_temperature;BMP_pressure;BME280_temperature;BME280_humidity;BME280_pressure;Samples;Min_cycle;Max_cycle;Signal;HPM_P1;HPM_P2
2022/05/26 00:02:19;;;;;;;21.95;7.57;;;;;;;;;;4837147;29;20050;-74
2022/05/26 00:04:54;;;;;;;10.63;7.25;;;;;;;;;;4836669;29;20049;-73
2022/05/26 00:07:27;;;;;;;18.27;7.45;;;;;;;;;;4821435;29;20069;-72
2022/05/26 00:09:59;;;;;;;20.05;7.55;;;;;;;;;;4835481;29;20054;-72
2022/05/26 00:12:38;;;;;;;18.10;7.22;;;;;;;;;;4837030;29;20049;-73
2022/05/26 00:15:13;;;;;;;20.77;7.68;;;;;;;;;;4821386;29;20049;-72
2022/05/26 00:17:46;;;;;;;14.90;7.43;;;;;;;;;;4836106;29;20052;-72
2022/05/26 00:20:22;;;;;;;10.38;7.15;;;;;;;;;;4819201;29;20553;-73
2022/05/26 00:22:54;;;;;;;14.60;7.05;;;;;;;;;;4836013;29;20037;-72
2022/05/26 00:25:30;;;;;;;14.38;7.05;;;;;;;;;;4835853;29;20418;-73
2022/05/26 00:28:07;;;;;;;22.20;6.05;;;;;;;;;;4834283;29;20049;-72
2022/05/26 00:30:41;;;;;;;10.98;6.25;;;;;;;;;;4833695;29;20077;-72
2022/05/26 00:33:15;;;;;;;11.18;6.20;;;;;;;;;;4836514;29;20053;-72
2022/05/26 00:35:55;;;;;;;9.30;6.03;;;;;;;;;;4836955;29;20060;-73
2022/05/26 00:38:35;;;;;;;9.10;6.00;;;;;;;;;;4834603;29;20498;-73
2022/05/26 00:41:14;;;;;;;9.60;6.07;;;;;;;;;;4835832;29;20057;-72
2022/05/26 00:43:49;;;;;;;18.20;6.10;;;;;;;;;;4836064;29;20058;-72
2022/05/26 00:46:39;;;;;;;11.48;6.07;;;;;;;;;;4835662;29;20069;-73
2022/05/26 00:49:48;;;;;;;13.68;6.03;;;;;;;;;;4835091;29;20062;-73
2022/05/26 00:52:45;;;;;;;12.27;5.97;;;;;;;;;;4810772;29;20069;-72
2022/05/26 00:55:44;;;;;;;8.52;5.35;;;;;;;;;;4832432;29;20529;-73
2022/05/26 00:58:35;;;;;;;10.68;5.63;;;;;;;;;;4831585;29;20058;-73
2022/05/26 01:01:17;;;;;;;9.27;5.25;;;;;;;;;;4815588;29;20062;-73
2022/05/26 01:03:57;;;;;;;8.73;5.70;;;;;;;;;;4818056;29;20050;-75
2022/05/26 01:06:46;;;;;;;8.90;5.55;;;;;;;;;;4801904;29;20514;-70
2022/05/26 01:09:31;;;;;;;9.27;5.53;;;;;;;;;;4816512;29;20146;-72
2022/05/26 01:12:06;;;;;;;9.52;5.95;;;;;;;;;;4816579;29;20055;-73
2022/05/26 01:15:15;;;;;;;9.93;5.65;;;;;;;;;;4817975;29;20046;-73
2022/05/26 01:18:15;;;;;;;10.85;5.32;;;;;;;;;;4817465;29;20057;-72
2022/05/26 01:21:28;;;;;;;9.38;5.07;;;;;;;;;;4818502;29;20050;-72
2022/05/26 01:24:27;;;;;;;10.48;6.00;;;;;;;;;;4809939;29;20540;-72
2022/05/26 01:27:06;;;;;;;9.05;5.53;;;;;;;;;;4809546;29;20066;-73
2022/05/26 01:30:07;;;;;;;11.55;6.03;;;;;;;;;;4817791;29;20057;-72
2022/05/26 01:32:49;;;;;;;13.52;5.30;;;;;;;;;;4817216;29;20053;-72
2022/05/26 01:35:42;;;;;;;18.17;5.10;;;;;;;;;;4817284;29;20051;-72
2022/05/26 01:38:35;;;;;;;14.95;5.47;;;;;;;;;;4817960;29;20061;-72
2022/05/26 01:41:16;;;;;;;10.35;5.70;;;;;;;;;;4818244;29;20085;-72
2022/05/26 01:44:04;;;;;;;14.23;6.03;;;;;;;;;;4817981;29;20054;-73
2022/05/26 01:46:38;;;;;;;12.88;5.38;;;;;;;;;;4817446;29;20134;-71
2022/05/26 01:49:23;;;;;;;11.73;5.13;;;;;;;;;;4817599;29;20046;-72
2022/05/26 01:52:27;;;;;;;10.65;5.18;;;;;;;;;;4819101;29;20416;-72
2022/05/26 01:55:03;;;;;;;12.07;4.68;;;;;;;;;;4821766;29;20058;-72
2022/05/26 01:57:43;;;;;;;9.70;4.90;;;;;;;;;;4821314;29;20038;-72
2022/05/26 02:00:18;;;;;;;9.32;4.78;;;;;;;;;;4832832;29;20061;-72
2022/05/26 02:02:52;;;;;;;8.40;5.10;;;;;;;;;;4838788;29;20511;-72
2022/05/26 02:05:28;;;;;;;7.47;4.90;;;;;;;;;;4839270;29;20061;-72
2022/05/26 02:08:12;;;;;;;13.10;5.25;;;;;;;;;;4839196;29;20046;-72
2022/05/26 02:11:15;;;;;;;12.98;5.00;;;;;;;;;;4839404;29;20045;-72
2022/05/26 02:14:18;;;;;;;13.40;4.93;;;;;;;;;;4837424;29;20721;-72
2022/05/26 02:16:52;;;;;;;11.43;5.22;;;;;;;;;;4810693;29;20512;-71
2022/05/26 02:19:45;;;;;;;7.88;4.88;;;;;;;;;;4839272;29;20418;-72
2022/05/26 02:22:19;;;;;;;9.00;5.38;;;;;;;;;;4839273;29;20050;-71
2022/05/26 02:25:09;;;;;;;6.55;5.05;;;;;;;;;;4838831;29;20054;-72
2022/05/26 02:27:39;;;;;;;10.25;5.65;;;;;;;;;;4836824;29;20049;-72
2022/05/26 02:30:12;;;;;;;15.68;4.82;;;;;;;;;;4838697;29;20061;-73
2022/05/26 02:32:51;;;;;;;8.18;5.20;;;;;;;;;;4838854;29;20057;-72
2022/05/26 02:35:33;;;;;;;11.75;6.13;;;;;;;;;;4838929;29;20042;-72
2022/05/26 02:38:10;;;;;;;14.63;6.53;;;;;;;;;;4837195;29;20053;-72
2022/05/26 02:40:41;;;;;;;9.65;5.32;;;;;;;;;;4838893;29;20062;-72
2022/05/26 02:43:20;;;;;;;11.38;6.13;;;;;;;;;;4838605;29;20101;-71
2022/05/26 02:46:25;;;;;;;11.07;5.75;;;;;;;;;;4838501;29;20049;-72
2022/05/26 02:49:22;;;;;;;14.60;5.93;;;;;;;;;;4838365;29;20056;-72
2022/05/26 02:52:10;;;;;;;11.70;6.50;;;;;;;;;;4838461;29;20407;-72
2022/05/26 02:54:40;;;;;;;12.65;6.63;;;;;;;;;;4838130;29;20053;-73
2022/05/26 02:57:15;;;;;;;16.42;6.45;;;;;;;;;;4838138;29;20057;-73
2022/05/26 02:59:59;;;;;;;8.85;6.00;;;;;;;;;;4837994;29;20046;-72
2022/05/26 03:02:51;;;;;;;10.82;6.78;;;;;;;;;;4838133;29;20054;-73
2022/05/26 03:05:43;;;;;;;10.38;6.78;;;;;;;;;;4838535;29;20053;-73
2022/05/26 03:08:19;;;;;;;14.93;7.90;;;;;;;;;;4838193;29;20054;-73
2022/05/26 03:10:53;;;;;;;12.25;7.00;;;;;;;;;;4837879;29;20042;-72
2022/05/26 03:13:25;;;;;;;10.35;7.20;;;;;;;;;;4837632;29;20062;-73
2022/05/26 03:15:55;;;;;;;11.55;7.72;;;;;;;;;;4837555;29;20514;-72
2022/05/26 03:18:26;;;;;;;18.35;7.53;;;;;;;;;;4838280;29;20064;-73
2022/05/26 03:20:59;;;;;;;13.65;7.38;;;;;;;;;;4837242;29;20057;-72
2022/05/26 03:23:29;;;;;;;11.60;7.50;;;;;;;;;;4837638;29;20060;-72
2022/05/26 03:26:00;;;;;;;18.08;7.25;;;;;;;;;;4837589;29;20104;-73
2022/05/26 03:28:30;;;;;;;25.85;7.45;;;;;;;;;;4838137;29;20058;-73
2022/05/26 03:31:00;;;;;;;14.60;7.28;;;;;;;;;;4820706;29;20066;-73
2022/05/26 03:40:45;;;;;;;12.32;7.32;;;;;;;;;;4837950;29;20054;-72
2022/05/26 03:41:58;;;;;;;10.05;6.80;;;;;;;;;;4837136;29;20613;-71
2022/05/26 03:44:32;;;;;;;11.73;7.28;;;;;;;;;;4838345;29;20053;-72
2022/05/26 03:47:02;;;;;;;11.77;6.75;;;;;;;;;;4837319;29;20054;-73
2022/05/26 03:49:33;;;;;;;13.32;7.20;;;;;;;;;;4836977;29;20049;-73
2022/05/26 03:52:04;;;;;;;8.57;6.67;;;;;;;;;;4836788;29;20050;-72
2022/05/26 03:54:33;;;;;;;17.13;6.47;;;;;;;;;;4837864;29;20541;-72
2022/05/26 03:57:03;;;;;;;10.63;7.25;;;;;;;;;;4837285;29;20517;-72
2022/05/26 03:59:34;;;;;;;10.35;7.05;;;;;;;;;;4837232;29;20070;-72
2022/05/26 04:02:05;;;;;;;11.27;7.05;;;;;;;;;;4837293;29;20054;-71
2022/05/26 04:04:35;;;;;;;14.15;7.72;;;;;;;;;;4835372;29;20068;-72
2022/05/26 04:07:05;;;;;;;11.02;6.82;;;;;;;;;;4821093;29;20418;-72
2022/05/26 04:09:35;;;;;;;10.95;7.45;;;;;;;;;;4837466;29;20053;-73
2022/05/26 04:12:05;;;;;;;12.68;7.15;;;;;;;;;;4837235;29;20073;-71
2022/05/26 04:14:35;;;;;;;13.50;8.32;;;;;;;;;;4836328;29;20054;-74
2022/05/26 04:17:05;;;;;;;16.27;7.25;;;;;;;;;;4836358;29;20062;-73
2022/05/26 04:19:41;;;;;;;14.37;7.53;;;;;;;;;;4836741;29;20054;-72
2022/05/26 04:22:23;;;;;;;14.85;7.80;;;;;;;;;;4837381;29;20391;-72
2022/05/26 04:24:57;;;;;;;18.38;7.40;;;;;;;;;;4819864;29;20071;-73
2022/05/26 04:27:31;;;;;;;11.05;7.30;;;;;;;;;;4836329;29;20050;-72
2022/05/26 04:30:03;;;;;;;14.85;7.28;;;;;;;;;;4837037;29;20514;-72
2022/05/26 04:32:34;;;;;;;12.65;7.20;;;;;;;;;;4836184;29;20050;-72
2022/05/26 04:35:04;;;;;;;14.50;7.20;;;;;;;;;;4836981;29;20050;-72
2022/05/26 04:37:35;;;;;;;15.23;7.53;;;;;;;;;;4836364;29;20870;-72
2022/05/26 04:40:06;;;;;;;8.82;6.63;;;;;;;;;;4836337;29;20065;-73
2022/05/26 04:42:39;;;;;;;11.10;7.35;;;;;;;;;;4836712;29;20414;-71
2022/05/26 04:45:12;;;;;;;9.45;7.07;;;;;;;;;;4836788;29;20502;-72
2022/05/26 04:47:42;;;;;;;10.25;7.38;;;;;;;;;;4836576;29;20050;-73
2022/05/26 04:50:14;;;;;;;9.27;6.88;;;;;;;;;;4836055;29;20049;-72
2022/05/26 04:52:45;;;;;;;12.98;7.53;;;;;;;;;;4836263;29;20525;-73
2022/05/26 04:55:14;;;;;;;12.07;7.10;;;;;;;;;;4836481;29;20057;-72
2022/05/26 04:57:44;;;;;;;10.65;7.40;;;;;;;;;;4836370;29;20065;-71
2022/05/26 05:00:16;;;;;;;22.40;7.15;;;;;;;;;;4836594;29;20132;-72
2022/05/26 05:02:47;;;;;;;16.92;7.07;;;;;;;;;;4836083;29;20054;-72
2022/05/26 05:05:16;;;;;;;8.80;7.05;;;;;;;;;;4835989;29;20042;-73
2022/05/26 05:07:46;;;;;;;12.02;6.75;;;;;;;;;;4836620;29;20062;-72
2022/05/26 05:10:16;;;;;;;19.30;8.27;;;;;;;;;;4820592;29;20156;-72
2022/05/26 05:12:49;;;;;;;14.63;7.25;;;;;;;;;;4836195;29;20054;-73
2022/05/26 05:15:33;;;;;;;17.80;7.78;;;;;;;;;;4835404;29;20061;-73
2022/05/26 05:18:03;;;;;;;10.20;6.97;;;;;;;;;;4836464;29;20053;-73
2022/05/26 05:20:34;;;;;;;11.68;7.00;;;;;;;;;;4836379;29;20058;-73
2022/05/26 05:23:12;;;;;;;16.02;7.40;;;;;;;;;;4835512;29;20054;-72
2022/05/26 05:25:46;;;;;;;13.70;7.20;;;;;;;;;;4835257;29;20077;-72
2022/05/26 05:28:21;;;;;;;16.40;8.07;;;;;;;;;;4835825;29;20049;-72
2022/05/26 05:30:57;;;;;;;13.32;8.60;;;;;;;;;;4835680;29;20069;-73
2022/05/26 05:33:34;;;;;;;15.65;8.05;;;;;;;;;;4836859;29;20046;-74
2022/05/26 05:36:13;;;;;;;17.20;8.40;;;;;;;;;;4835823;29;20046;-73
2022/05/26 05:38:44;;;;;;;18.95;9.35;;;;;;;;;;4835565;29;20072;-73
2022/05/26 05:41:14;;;;;;;12.23;8.95;;;;;;;;;;4835735;29;20058;-74
2022/05/26 05:43:43;;;;;;;14.95;9.68;;;;;;;;;;4835757;29;20438;-74
2022/05/26 05:46:19;;;;;;;21.08;9.88;;;;;;;;;;4835946;29;20054;-73
2022/05/26 05:48:50;;;;;;;16.98;10.13;;;;;;;;;;4819674;29;20510;-74
2022/05/26 05:51:20;;;;;;;17.70;10.60;;;;;;;;;;4835595;29;20112;-74
2022/05/26 05:53:50;;;;;;;20.67;10.23;;;;;;;;;;4818330;29;20069;-74
2022/05/26 05:56:19;;;;;;;17.30;10.05;;;;;;;;;;4835522;29;20510;-73
2022/05/26 05:58:51;;;;;;;12.95;10.73;;;;;;;;;;4835477;29;20042;-73
2022/05/26 06:01:22;;;;;;;17.60;11.45;;;;;;;;;;4835464;29;20079;-74
2022/05/26 06:03:52;;;;;;;22.80;11.45;;;;;;;;;;4835806;29;20060;-73
2022/05/26 06:06:21;;;;;;;17.30;11.63;;;;;;;;;;4835852;29;20054;-73
2022/05/26 06:08:51;;;;;;;16.77;11.20;;;;;;;;;;4835335;29;20054;-73
2022/05/26 06:11:21;;;;;;;14.50;11.70;;;;;;;;;;4835274;29;20058;-73
2022/05/26 06:13:51;;;;;;;24.95;12.32;;;;;;;;;;4835046;29;20054;-74
2022/05/26 06:16:20;;;;;;;30.17;12.20;;;;;;;;;;4835437;29;20061;-73
2022/05/26 06:18:51;;;;;;;21.05;11.77;;;;;;;;;;4835748;29;20062;-73
2022/05/26 06:21:22;;;;;;;20.88;12.73;;;;;;;;;;4835091;29;20050;-74
2022/05/26 06:23:55;;;;;;;20.90;13.00;;;;;;;;;;4835365;29;20062;-73
2022/05/26 06:26:29;;;;;;;22.48;12.32;;;;;;;;;;4835909;29;20057;-73
2022/05/26 06:37:28;;;;;;;16.92;12.63;;;;;;;;;;4835799;29;20061;-74
2022/05/26 06:39:58;;;;;;;19.73;13.52;;;;;;;;;;4838784;29;20045;-74
2022/05/26 06:42:28;;;;;;;21.52;14.82;;;;;;;;;;4838673;29;20543;-73
2022/05/26 06:45:02;;;;;;;25.20;15.48;;;;;;;;;;4837998;29;20065;-73
2022/05/26 06:47:32;;;;;;;20.77;16.98;;;;;;;;;;4838217;29;20053;-74
2022/05/26 06:50:02;;;;;;;27.88;16.73;;;;;;;;;;4838067;29;20054;-73
2022/05/26 06:52:32;;;;;;;23.95;16.88;;;;;;;;;;4838564;29;20510;-74
2022/05/26 06:55:06;;;;;;;21.00;16.27;;;;;;;;;;4838331;29;20054;-73
2022/05/26 06:57:37;;;;;;;25.52;16.63;;;;;;;;;;4839000;29;20057;-73
2022/05/26 07:00:09;;;;;;;26.83;17.60;;;;;;;;;;4837906;29;20054;-73
2022/05/26 07:02:39;;;;;;;34.50;16.48;;;;;;;;;;4838763;29;20056;-73
2022/05/26 07:05:11;;;;;;;18.80;15.18;;;;;;;;;;4839167;29;20064;-73
2022/05/26 07:07:42;;;;;;;27.65;16.23;;;;;;;;;;4838220;29;20058;-73
2022/05/26 07:10:13;;;;;;;20.17;13.75;;;;;;;;;;4838719;29;20060;-72
2022/05/26 07:12:44;;;;;;;23.05;14.88;;;;;;;;;;4838320;29;20057;-72
2022/05/26 07:15:14;;;;;;;22.33;15.57;;;;;;;;;;4821953;29;20054;-73
2022/05/26 07:17:48;;;;;;;23.52;15.52;;;;;;;;;;4838868;29;20050;-73
2022/05/26 07:20:18;;;;;;;23.83;16.83;;;;;;;;;;4837430;29;20101;-73
2022/05/26 07:22:48;;;;;;;21.65;15.20;;;;;;;;;;4837718;29;20062;-73
2022/05/26 07:25:17;;;;;;;25.58;17.08;;;;;;;;;;4838583;29;20180;-73
2022/05/26 07:27:47;;;;;;;21.33;15.40;;;;;;;;;;4821062;29;20056;-73
2022/05/26 07:30:17;;;;;;;23.98;15.88;;;;;;;;;;4837773;29;20058;-73
2022/05/26 07:32:47;;;;;;;20.38;13.48;;;;;;;;;;4837034;29;20065;-74
2022/05/26 07:35:17;;;;;;;23.55;15.45;;;;;;;;;;4837842;29;20050;-73
2022/05/26 07:43:24;;;;;;;16.50;12.40;;;;;;;;;;4837385;29;20068;-73
2022/05/26 07:45:54;;;;;;;23.27;14.38;;;;;;;;;;4837608;29;20065;-74
2022/05/26 07:48:24;;;;;;;16.30;13.98;;;;;;;;;;4837137;29;20061;-73
2022/05/26 07:50:54;;;;;;;19.90;13.27;;;;;;;;;;4821657;29;20069;-73
2022/05/26 07:53:24;;;;;;;17.10;13.02;;;;;;;;;;4837689;29;20860;-73
2022/05/26 07:55:54;;;;;;;24.95;14.40;;;;;;;;;;4837393;29;20061;-73
2022/05/26 07:58:24;;;;;;;21.35;13.05;;;;;;;;;;4837885;29;20061;-73
2022/05/26 08:00:54;;;;;;;15.85;12.35;;;;;;;;;;4837365;29;20058;-73
2022/05/26 08:03:24;;;;;;;14.75;11.20;;;;;;;;;;4837473;29;20073;-73
2022/05/26 08:05:54;;;;;;;11.18;9.80;;;;;;;;;;4836565;29;20057;-73
2022/05/26 08:08:25;;;;;;;19.30;11.43;;;;;;;;;;4837597;29;20065;-73
2022/05/26 08:10:55;;;;;;;17.15;11.93;;;;;;;;;;4837396;29;20542;-73
2022/05/26 08:13:26;;;;;;;19.77;11.00;;;;;;;;;;4837565;29;20057;-74
2022/05/26 08:15:56;;;;;;;15.98;10.30;;;;;;;;;;4837062;29;20057;-73
2022/05/26 08:18:27;;;;;;;13.25;10.07;;;;;;;;;;4837736;29;20050;-73
2022/05/26 08:21:07;;;;;;;13.82;10.57;;;;;;;;;;4836743;29;20073;-73
2022/05/26 08:23:38;;;;;;;15.55;9.25;;;;;;;;;;4836947;29;20057;-73
2022/05/26 08:26:08;;;;;;;19.95;10.27;;;;;;;;;;4836714;29;20179;-74
2022/05/26 08:28:38;;;;;;;11.02;9.93;;;;;;;;;;4837431;29;20058;-73
2022/05/26 08:31:10;;;;;;;14.60;10.32;;;;;;;;;;4836998;29;20065;-73
2022/05/26 08:33:41;;;;;;;17.73;10.60;;;;;;;;;;4836726;29;20046;-73
2022/05/26 08:36:14;;;;;;;19.43;10.97;;;;;;;;;;4836524;29;20061;-73
2022/05/26 08:38:44;;;;;;;16.80;10.77;;;;;;;;;;4835864;29;20411;-73
2022/05/26 08:41:39;;;;;;;16.25;11.50;;;;;;;;;;4837072;29;20058;-73
2022/05/26 08:44:16;;;;;;;19.35;11.30;;;;;;;;;;4836465;29;20053;-73
2022/05/26 08:46:54;;;;;;;13.52;10.43;;;;;;;;;;4836394;29;20042;-73
2022/05/26 08:49:35;;;;;;;16.63;11.98;;;;;;;;;;4836918;29;20526;-73
2022/05/26 08:52:11;;;;;;;14.57;10.73;;;;;;;;;;4836369;29;20057;-73
2022/05/26 08:55:04;;;;;;;20.30;10.40;;;;;;;;;;4836043;29;20051;-73
2022/05/26 08:57:42;;;;;;;14.13;10.57;;;;;;;;;;4829656;29;20070;-73
2022/05/26 09:00:16;;;;;;;11.82;9.00;;;;;;;;;;4836317;29;20085;-73
2022/05/26 09:02:51;;;;;;;15.68;10.05;;;;;;;;;;4836297;29;20372;-73
2022/05/26 09:05:22;;;;;;;15.40;9.73;;;;;;;;;;4836623;29;20065;-73
2022/05/26 09:14:41;;;;;;;9.88;8.85;;;;;;;;;;4787693;29;20526;-73
2022/05/26 09:17:14;;;;;;;22.35;9.95;;;;;;;;;;4837198;29;20050;-73
2022/05/26 09:19:44;;;;;;;13.18;10.00;;;;;;;;;;4836515;29;20506;-73
2022/05/26 09:22:32;;;;;;;13.68;10.63;;;;;;;;;;4836927;29;20054;-73
2022/05/26 09:25:03;;;;;;;15.95;11.07;;;;;;;;;;4836727;29;20046;-73
2022/05/26 09:27:36;;;;;;;15.35;9.82;;;;;;;;;;4836093;29;20054;-72
2022/05/26 09:30:25;;;;;;;15.23;10.18;;;;;;;;;;4835789;29;20056;-73
2022/05/26 09:32:56;;;;;;;14.40;9.40;;;;;;;;;;4836576;29;20129;-73
2022/05/26 09:35:32;;;;;;;18.50;9.85;;;;;;;;;;4836208;29;20076;-73
2022/05/26 09:38:05;;;;;;;14.82;10.60;;;;;;;;;;4836779;29;20608;-73
2022/05/26 09:40:41;;;;;;;14.68;9.55;;;;;;;;;;4837688;29;20057;-73
2022/05/26 09:43:17;;;;;;;16.27;9.90;;;;;;;;;;4837589;29;20061;-73
2022/05/26 09:45:52;;;;;;;15.25;9.52;;;;;;;;;;4836928;29;20042;-73
2022/05/26 09:48:32;;;;;;;14.18;9.75;;;;;;;;;;4837276;29;20073;-73
2022/05/26 09:51:13;;;;;;;19.98;9.45;;;;;;;;;;4836730;29;20395;-73
2022/05/26 09:53:45;;;;;;;12.68;9.13;;;;;;;;;;4821252;29;20065;-73
2022/05/26 09:56:37;;;;;;;14.02;9.15;;;;;;;;;;4837810;29;20050;-73
2022/05/26 09:59:25;;;;;;;17.20;10.07;;;;;;;;;;4836774;29;20066;-73
2022/05/26 10:02:24;;;;;;;22.70;10.35;;;;;;;;;;4836489;29;20127;-73
2022/05/26 10:05:21;;;;;;;19.10;10.65;;;;;;;;;;4836274;29;20078;-73
2022/05/26 10:08:11;;;;;;;14.88;9.88;;;;;;;;;;4837524;29;20057;-73
2022/05/26 10:10:52;;;;;;;17.20;10.45;;;;;;;;;;4837162;29;20050;-73
2022/05/26 10:13:21;;;;;;;21.13;10.02;;;;;;;;;;4839030;29;20062;-72
2022/05/26 10:16:15;;;;;;;21.80;10.65;;;;;;;;;;4841324;29;20050;-74
2022/05/26 10:19:17;;;;;;;11.95;9.65;;;;;;;;;;4825493;29;20053;-73
2022/05/26 10:22:22;;;;;;;14.80;9.30;;;;;;;;;;4834922;29;20430;-73
2022/05/26 10:25:01;;;;;;;20.30;9.18;;;;;;;;;;4839904;29;20537;-75
2022/05/26 10:27:49;;;;;;;19.60;8.65;;;;;;;;;;4839545;29;20049;-73
2022/05/26 10:30:24;;;;;;;12.20;7.97;;;;;;;;;;4839119;29;20056;-73
2022/05/26 10:33:16;;;;;;;18.20;7.95;;;;;;;;;;4838975;29;20084;-73
2022/05/26 10:35:48;;;;;;;;;;;;;;;;;;4839033;29;20050;-73
2022/05/26 10:39:11;;;;;;;11.90;7.20;;;;;;;;;;4838581;29;19928;-73
2022/05/26 10:41:57;;;;;;;12.90;7.53;;;;;;;;;;4805190;29;20435;-73
2022/05/26 10:44:42;;;;;;;15.30;7.68;;;;;;;;;;4838631;29;20057;-73
2022/05/26 10:47:31;;;;;;;19.80;7.72;;;;;;;;;;4839092;29;20057;-73
2022/05/26 10:50:16;;;;;;;13.50;7.78;;;;;;;;;;4838464;29;20463;-73
2022/05/26 10:52:58;;;;;;;;;;;;;;;;;;4838837;29;20046;-73
2022/05/26 10:56:00;;;;;;;10.77;7.95;;;;;;;;;;4838696;29;19928;-74
2022/05/26 10:58:34;;;;;;;29.38;7.78;;;;;;;;;;4831803;29;20443;-73
2022/05/26 11:01:21;;;;;;;13.55;7.78;;;;;;;;;;4838574;29;20061;-73
2022/05/26 11:03:56;;;;;;;10.85;8.35;;;;;;;;;;4838815;29;20057;-73
2022/05/26 11:06:32;;;;;;;14.15;7.72;;;;;;;;;;4838424;29;20046;-73
2022/05/26 11:09:07;;;;;;;16.40;8.77;;;;;;;;;;4838363;29;20407;-73
2022/05/26 11:11:47;;;;;;;16.52;9.02;;;;;;;;;;4837614;29;20442;-73
2022/05/26 11:17:42;;;;;;;12.15;8.75;;;;;;;;;;4837831;29;20057;-73
2022/05/26 11:20:15;;;;;;;16.40;9.60;;;;;;;;;;4838186;29;20501;-73
2022/05/26 11:22:48;;;;;;;16.23;8.98;;;;;;;;;;4821524;29;20053;-73
2022/05/26 11:25:46;;;;;;;10.93;8.57;;;;;;;;;;4838900;29;20049;-73
2022/05/26 11:28:47;;;;;;;12.05;7.82;;;;;;;;;;4838529;29;20061;-72
2022/05/26 11:37:27;;;;;;;12.95;7.88;;;;;;;;;;4837583;29;20129;-74
2022/05/26 11:40:02;;;;;;;11.25;7.90;;;;;;;;;;4837695;29;20054;-73
2022/05/26 11:42:59;;;;;;;8.95;7.40;;;;;;;;;;4837827;29;20054;-74
2022/05/26 11:45:34;;;;;;;11.27;6.95;;;;;;;;;;4837322;29;20057;-73
2022/05/26 11:48:07;;;;;;;14.70;7.85;;;;;;;;;;4838400;29;20054;-73
2022/05/26 11:51:00;;;;;;;12.52;8.25;;;;;;;;;;4837252;29;20406;-74
2022/05/26 11:53:46;;;;;;;11.00;7.78;;;;;;;;;;4837502;29;20057;-74
2022/05/26 11:56:25;;;;;;;12.57;6.90;;;;;;;;;;4837465;29;20065;-73
2022/05/26 11:59:21;;;;;;;14.60;7.75;;;;;;;;;;4837376;29;20061;-73
2022/05/26 12:02:01;;;;;;;10.68;7.03;;;;;;;;;;4810570;29;20775;-73
2022/05/26 12:04:32;;;;;;;11.75;6.75;;;;;;;;;;4837342;29;20560;-74
2022/05/26 12:07:06;;;;;;;11.05;8.45;;;;;;;;;;4837525;29;20046;-73
2022/05/26 12:09:59;;;;;;;9.00;7.82;;;;;;;;;;4837469;29;20065;-73
2022/05/26 12:12:35;;;;;;;12.15;6.93;;;;;;;;;;4832534;29;20403;-73
2022/05/26 12:15:14;;;;;;;8.73;6.72;;;;;;;;;;4820258;29;20066;-73
2022/05/26 12:17:53;;;;;;;10.88;6.03;;;;;;;;;;4837062;29;20054;-73
2022/05/26 12:20:24;;;;;;;14.15;6.15;;;;;;;;;;4836554;29;20587;-72
2022/05/26 12:22:54;;;;;;;12.95;5.75;;;;;;;;;;4836964;29;20060;-73
2022/05/26 12:25:35;;;;;;;9.32;7.28;;;;;;;;;;4837335;29;20054;-73
2022/05/26 12:28:14;;;;;;;9.23;5.93;;;;;;;;;;4836488;29;20046;-74
2022/05/26 12:30:44;;;;;;;10.98;6.40;;;;;;;;;;4820387;29;20522;-73
2022/05/26 12:33:23;;;;;;;11.98;6.03;;;;;;;;;;4836906;29;20734;-74
2022/05/26 12:36:11;;;;;;;7.65;5.15;;;;;;;;;;4836180;29;20057;-74
2022/05/26 12:38:50;;;;;;;7.90;5.55;;;;;;;;;;4836507;29;20054;-74
2022/05/26 12:41:54;;;;;;;10.45;5.68;;;;;;;;;;4836550;29;20046;-74
2022/05/26 12:44:52;;;;;;;9.13;5.55;;;;;;;;;;4836155;29;20149;-76
2022/05/26 12:47:38;;;;;;;9.10;6.35;;;;;;;;;;4836072;29;20555;-74
2022/05/26 12:50:13;;;;;;;8.48;7.30;;;;;;;;;;4836130;29;20050;-75
2022/05/26 12:53:45;;;;;;;16.60;8.70;;;;;;;;;;4836510;29;20050;-75
2022/05/26 12:56:29;;;;;;;8.57;7.13;;;;;;;;;;4744290;30;20518;-75
2022/05/26 12:59:03;;;;;;;14.57;7.45;;;;;;;;;;4834008;29;20069;-74
2022/05/26 13:01:34;;;;;;;10.02;7.65;;;;;;;;;;4835749;29;20442;-74
2022/05/26 13:04:08;;;;;;;13.07;7.25;;;;;;;;;;4835723;29;20046;-75
2022/05/26 13:06:44;;;;;;;7.88;6.90;;;;;;;;;;4836431;29;20525;-74
2022/05/26 13:09:15;;;;;;;12.25;7.00;;;;;;;;;;4836223;29;20438;-75
2022/05/26 13:11:53;;;;;;;14.23;6.68;;;;;;;;;;4836220;29;20049;-74
2022/05/26 13:14:44;;;;;;;9.50;6.22;;;;;;;;;;4835686;29;20057;-75
2022/05/26 13:17:18;;;;;;;11.05;7.13;;;;;;;;;;4835791;29;20053;-75
2022/05/26 13:19:59;;;;;;;18.50;9.68;;;;;;;;;;4835914;29;20065;-74
2022/05/26 13:22:36;;;;;;;18.52;8.32;;;;;;;;;;4835820;29;20054;-74
2022/05/26 13:25:11;;;;;;;11.25;7.10;;;;;;;;;;4835930;29;20395;-74
2022/05/26 13:27:46;;;;;;;8.98;6.63;;;;;;;;;;4835696;29;20053;-77
2022/05/26 13:33:22;;;;;;;14.63;7.50;;;;;;;;;;4834964;29;20065;-75
2022/05/26 13:35:57;;;;;;;11.23;8.07;;;;;;;;;;4835864;29;20052;-75
2022/05/26 13:38:46;;;;;;;12.57;8.50;;;;;;;;;;4835600;29;20065;-78
2022/05/26 13:41:23;;;;;;;12.68;8.88;;;;;;;;;;4835522;29;20053;-75
2022/05/26 13:43:55;;;;;;;15.93;10.23;;;;;;;;;;4836270;29;20148;-75
2022/05/26 13:46:33;;;;;;;27.33;12.90;;;;;;;;;;4819922;29;20042;-77
2022/05/26 13:49:31;;;;;;;17.02;12.80;;;;;;;;;;4822939;29;20057;-76
2022/05/26 13:52:14;;;;;;;15.73;14.15;;;;;;;;;;4839054;29;20057;-74
2022/05/26 13:54:52;;;;;;;25.10;14.90;;;;;;;;;;4821902;29;20064;-74
2022/05/26 13:57:30;;;;;;;18.10;13.35;;;;;;;;;;4839546;29;20038;-73
2022/05/26 14:00:04;;;;;;;15.20;12.60;;;;;;;;;;4839714;29;20065;-78
2022/05/26 14:02:36;;;;;;;20.15;13.38;;;;;;;;;;4838937;29;20053;-74
2022/05/26 14:05:12;;;;;;;26.60;14.50;;;;;;;;;;4839002;29;20046;-74
2022/05/26 14:07:46;;;;;;;24.48;15.07;;;;;;;;;;4839371;29;20388;-74
2022/05/26 14:10:17;;;;;;;16.10;13.20;;;;;;;;;;4821825;29;20061;-75
2022/05/26 14:13:06;;;;;;;20.88;16.20;;;;;;;;;;4838844;29;20424;-77
2022/05/26 14:15:41;;;;;;;23.02;16.52;;;;;;;;;;4842573;29;20045;-74
2022/05/26 14:18:32;;;;;;;21.30;15.80;;;;;;;;;;4846949;29;20502;-75
2022/05/26 14:21:14;;;;;;;23.33;15.35;;;;;;;;;;4838085;29;20046;-72
2022/05/26 14:24:27;;;;;;;22.02;16.65;;;;;;;;;;4838638;29;20046;-74
2022/05/26 14:27:17;;;;;;;28.25;16.40;;;;;;;;;;4838788;29;20431;-76
2022/05/26 14:30:44;;;;;;;22.60;16.67;;;;;;;;;;4842790;29;20054;-75
2022/05/26 14:33:29;;;;;;;20.15;16.65;;;;;;;;;;4838627;29;20411;-72
2022/05/26 14:36:00;;;;;;;31.45;16.40;;;;;;;;;;4838113;29;20041;-74
2022/05/26 14:38:30;;;;;;;17.88;14.07;;;;;;;;;;4838635;29;20060;-74
2022/05/26 14:40:59;;;;;;;20.52;14.77;;;;;;;;;;4838475;29;20053;-78
2022/05/26 14:43:35;;;;;;;22.95;15.27;;;;;;;;;;4838416;29;20049;-75
2022/05/26 14:46:05;;;;;;;22.70;15.25;;;;;;;;;;4837913;29;20061;-74
2022/05/26 14:48:35;;;;;;;61.42;17.63;;;;;;;;;;4838607;29;20064;-74
2022/05/26 14:51:05;;;;;;;18.25;13.98;;;;;;;;;;4838432;29;20054;-74
2022/05/26 14:56:24;;;;;;;16.55;13.60;;;;;;;;;;4838658;29;20042;-75
2022/05/26 14:58:53;;;;;;;23.10;13.18;;;;;;;;;;4837734;29;20046;-75
2022/05/26 15:01:23;;;;;;;14.45;12.95;;;;;;;;;;4837724;29;20069;-76
2022/05/26 15:03:53;;;;;;;19.27;12.27;;;;;;;;;;4838050;29;20423;-75
2022/05/26 15:06:23;;;;;;;21.13;14.27;;;;;;;;;;4838324;29;20058;-77
2022/05/26 15:08:53;;;;;;;18.50;15.70;;;;;;;;;;4820518;29;20085;-76
2022/05/26 15:11:23;;;;;;;20.60;14.00;;;;;;;;;;4837775;29;20057;-77
2022/05/26 15:13:53;;;;;;;19.13;13.75;;;;;;;;;;4838090;29;20057;-76
2022/05/26 15:16:24;;;;;;;15.95;12.57;;;;;;;;;;4821321;29;20054;-75
2022/05/26 15:18:55;;;;;;;16.13;13.43;;;;;;;;;;4838143;29;20065;-76
2022/05/26 15:21:25;;;;;;;29.20;13.95;;;;;;;;;;4838228;29;20060;-76
2022/05/26 15:23:55;;;;;;;21.00;13.93;;;;;;;;;;4820772;29;20644;-75
2022/05/26 15:26:26;;;;;;;20.80;15.90;;;;;;;;;;4821455;29;20061;-74
2022/05/26 15:28:57;;;;;;;18.25;16.02;;;;;;;;;;4838180;29;20053;-76
2022/05/26 15:31:33;;;;;;;28.17;16.30;;;;;;;;;;4837271;29;20046;-73
2022/05/26 15:34:04;;;;;;;26.17;14.65;;;;;;;;;;4837595;29;20511;-73
2022/05/26 15:36:34;;;;;;;18.10;14.55;;;;;;;;;;4837747;29;20228;-75
2022/05/26 15:39:04;;;;;;;24.05;14.93;;;;;;;;;;4836308;29;20515;-76
2022/05/26 15:41:34;;;;;;;21.17;12.70;;;;;;;;;;4837124;29;20050;-76
2022/05/26 15:44:05;;;;;;;23.88;13.55;;;;;;;;;;4837473;29;20046;-75
2022/05/26 15:46:43;;;;;;;23.67;13.50;;;;;;;;;;4837002;29;20042;-74
2022/05/26 15:49:32;;;;;;;19.90;10.40;;;;;;;;;;4837850;29;20061;-73
2022/05/26 15:52:02;;;;;;;24.20;12.18;;;;;;;;;;4837457;29;20038;-75
2022/05/26 15:54:32;;;;;;;15.40;10.88;;;;;;;;;;4837229;29;20073;-75
2022/05/26 15:57:02;;;;;;;17.60;12.57;;;;;;;;;;4820431;29;20058;-75
2022/05/26 15:59:32;;;;;;;19.77;12.40;;;;;;;;;;4837023;29;20061;-74
2022/05/26 16:02:03;;;;;;;25.60;12.98;;;;;;;;;;4837510;29;20057;-75
2022/05/26 16:04:33;;;;;;;18.58;14.25;;;;;;;;;;4837001;29;20053;-77
2022/05/26 16:07:03;;;;;;;32.28;14.52;;;;;;;;;;4837026;29;20069;-74
2022/05/26 16:09:33;;;;;;;20.63;13.10;;;;;;;;;;4820077;29;20062;-75